Time;durP1;ratioP1;P1;durP2;ratioP2;P2;SDS_P1;SDS_P2;PMS_P1;PMS_P2;Temp;Humidity;BMP_temperature;BMP_pressure;BME280_temperature;BME280_humidity;BME280_pressure;Samples;Min_cycle;Max_cycle;Signal;HPM_P1;HPM_P2
2022/02/25 00:01:52;;;;;;;44.30;27.10;;;;;;;2.78;84.21;100065.21;109209;1277;23211;-59
2022/02/25 00:04:26;;;;;;;37.40;25.20;;;;;;;2.77;84.31;100053.77;109099;1276;138083;-59
2022/02/25 00:06:53;;;;;;;43.90;26.80;;;;;;;2.79;84.13;100060.59;109143;1277;23082;-59
2022/02/25 00:09:26;;;;;;;44.30;25.60;;;;;;;2.79;84.12;100054.88;109266;1277;23102;-59
2022/02/25 00:11:59;;;;;;;38.30;23.70;;;;;;;2.78;84.15;100043.70;109080;1277;139641;-59
2022/02/25 00:14:27;;;;;;;38.10;24.50;;;;;;;2.79;84.27;100039.67;109192;1276;23260;-59
2022/02/25 00:17:00;;;;;;;38.60;24.40;;;;;;;2.78;84.38;100031.48;105760;1277;138804;-58
2022/02/25 00:19:33;;;;;;;39.20;24.40;;;;;;;2.79;84.31;100029.09;104838;1277;25394;-59
2022/02/25 00:22:07;;;;;;;36.90;23.50;;;;;;;2.83;84.48;100029.86;104788;1277;138210;-59
2022/02/25 00:24:38;;;;;;;47.00;28.60;;;;;;;2.83;84.35;100027.50;104860;1277;25343;-60
2022/02/25 00:27:11;;;;;;;41.50;25.50;;;;;;;2.81;84.46;100019.17;104823;1277;25340;-60
2022/02/25 00:29:42;;;;;;;36.80;23.10;;;;;;;2.82;84.44;100022.40;109107;1277;138068;-60
2022/02/25 00:32:21;;;;;;;40.60;24.70;;;;;;;2.82;84.42;100022.95;109098;1277;22422;-61
2022/02/25 00:34:53;;;;;;;37.30;24.60;;;;;;;2.82;84.49;100022.65;109079;1276;138362;-61
2022/02/25 00:37:23;;;;;;;38.40;24.20;;;;;;;2.82;84.52;100023.85;109216;1277;22432;-61
2022/02/25 00:39:53;;;;;;;39.00;26.20;;;;;;;2.81;84.53;100018.02;109204;1277;22481;-59
2022/02/25 00:42:24;;;;;;;46.40;27.00;;;;;;;2.82;84.49;100014.04;109051;1277;137883;-60
2022/02/25 00:44:54;;;;;;;43.30;27.90;;;;;;;2.82;84.49;100013.45;109263;1277;22433;-59
2022/02/25 00:47:23;;;;;;;42.00;27.10;;;;;;;2.80;84.42;100010.05;109087;1275;137605;-60
2022/02/25 00:49:55;;;;;;;39.30;24.80;;;;;;;2.80;84.46;100011.38;109129;1277;22676;-61
2022/02/25 00:52:26;;;;;;;46.40;29.80;;;;;;;2.80;84.36;100011.20;109123;1277;138780;-60
2022/02/25 00:54:56;;;;;;;36.30;24.20;;;;;;;2.80;84.46;100006.77;109210;1277;22514;-59
2022/02/25 00:57:25;;;;;;;38.80;24.70;;;;;;;2.81;84.37;100006.62;109203;1277;22551;-59
2022/02/25 00:59:55;;;;;;;43.00;27.50;;;;;;;2.81;84.58;100003.85;109127;1277;139018;-59
2022/02/25 01:02:24;;;;;;;36.80;23.90;;;;;;;2.83;84.45;99997.49;109038;1277;22466;-60
2022/02/25 01:04:52;;;;;;;40.30;25.80;;;;;;;2.83;84.36;99998.91;109085;1276;137980;-59
2022/02/25 01:07:20;;;;;;;40.50;27.40;;;;;;;2.84;84.35;99998.33;109168;1277;24399;-59
2022/02/25 01:09:48;;;;;;;38.40;24.20;;;;;;;2.85;84.58;99992.83;109102;1277;22474;-59
2022/02/25 01:12:16;;;;;;;46.10;28.30;;;;;;;2.86;84.50;99990.31;109094;1277;138024;-59
2022/02/25 01:14:44;;;;;;;44.20;27.90;;;;;;;2.88;84.49;99989.46;109163;1277;23350;-59
2022/02/25 01:17:13;;;;;;;41.20;27.40;;;;;;;2.86;84.47;99984.77;109125;1277;137598;-58
2022/02/25 01:19:41;;;;;;;45.30;28.20;;;;;;;2.84;84.54;99981.40;109225;1277;22610;-59
2022/02/25 01:22:09;;;;;;;47.30;29.70;;;;;;;2.84;84.45;99981.44;109022;1277;139676;-59
2022/02/25 01:24:38;;;;;;;46.20;28.50;;;;;;;2.83;84.38;99981.09;109212;1277;22704;-59
2022/02/25 01:27:07;;;;;;;49.30;27.70;;;;;;;2.79;84.48;99974.36;109167;1276;22420;-59
2022/02/25 01:29:36;;;;;;;47.20;28.40;;;;;;;2.81;84.43;99978.77;109062;1277;137984;-59
2022/02/25 01:32:04;;;;;;;39.20;25.80;;;;;;;2.81;84.40;99974.13;109126;1277;22405;-60
2022/02/25 01:34:32;;;;;;;41.30;25.60;;;;;;;2.80;84.48;99970.30;109051;1277;138655;-60
2022/02/25 01:37:00;;;;;;;43.00;26.70;;;;;;;2.80;84.44;99967.21;109188;1277;22532;-59
2022/02/25 01:39:28;;;;;;;51.30;29.70;;;;;;;2.79;84.53;99961.45;109201;1277;23270;-59
2022/02/25 01:41:56;;;;;;;49.30;27.00;;;;;;;2.79;84.58;99957.92;109059;1275;138862;-59
2022/02/25 01:44:25;;;;;;;50.70;30.10;;;;;;;2.78;84.58;99960.52;109006;1279;22554;-59
2022/02/25 01:47:03;;;;;;;48.70;29.60;;;;;;;2.78;84.65;99954.10;108861;1277;139658;-59
2022/02/25 01:49:31;;;;;;;43.90;26.90;;;;;;;2.78;84.58;99952.98;109157;1276;22464;-59
2022/02/25 01:52:01;;;;;;;98.00;44.50;;;;;;;2.79;84.61;99959.66;109148;1277;22504;-59
2022/02/25 01:54:29;;;;;;;79.60;39.90;;;;;;;2.80;84.72;99953.76;109066;1277;139249;-59
2022/02/25 01:56:58;;;;;;;49.10;30.20;;;;;;;2.81;84.71;99951.69;109153;1277;23387;-60
2022/02/25 01:59:26;;;;;;;45.30;28.80;;;;;;;2.83;84.74;99953.61;109107;1277;138380;-59
2022/02/25 02:01:55;;;;;;;47.90;31.10;;;;;;;2.83;84.76;99953.03;109108;1277;22529;-60
2022/02/25 02:04:23;;;;;;;51.20;30.20;;;;;;;2.83;84.65;99947.81;109098;1277;139266;-60
2022/02/25 02:06:51;;;;;;;48.50;29.70;;;;;;;2.82;84.55;99946.23;109238;1275;22426;-60
2022/02/25 02:09:19;;;;;;;40.80;28.10;;;;;;;2.80;84.63;99948.20;109206;1277;22557;-60
2022/02/25 02:11:49;;;;;;;46.40;29.10;;;;;;;2.77;84.72;99943.38;109045;1277;138094;-60
2022/02/25 02:14:18;;;;;;;47.70;29.30;;;;;;;2.77;84.70;99944.08;109263;1277;22419;-59
2022/02/25 02:16:48;;;;;;;46.80;29.20;;;;;;;2.76;84.67;99942.21;106183;1277;138279;-59
2022/02/25 02:19:16;;;;;;;40.00;26.70;;;;;;;2.75;84.68;99938.10;109158;1277;22557;-59
2022/02/25 02:21:46;;;;;;;39.70;26.80;;;;;;;2.75;84.70;99936.03;109153;1277;22387;-59
2022/02/25 02:24:14;;;;;;;44.50;27.50;;;;;;;2.73;84.75;99931.90;109067;1277;139390;-60
2022/02/25 02:26:43;;;;;;;42.80;27.50;;;;;;;2.70;84.87;99927.78;109180;1277;22461;-60
2022/02/25 02:29:10;;;;;;;41.80;26.90;;;;;;;2.71;84.81;99930.98;108962;1277;138297;-60
2022/02/25 02:31:39;;;;;;;43.70;27.10;;;;;;;2.72;84.84;99933.02;109226;1276;22479;-59
2022/02/25 02:34:12;;;;;;;43.70;27.60;;;;;;;2.71;84.91;99930.80;109055;1277;139854;-59
2022/02/25 02:36:40;;;;;;;38.50;25.80;;;;;;;2.69;84.91;99929.96;109164;1277;22423;-59
2022/02/25 02:39:08;;;;;;;44.10;27.50;;;;;;;2.69;84.95;99934.57;109205;1277;22889;-60
2022/02/25 02:41:36;;;;;;;35.30;24.00;;;;;;;2.70;85.08;99931.80;109089;1277;137950;-60
2022/02/25 02:44:04;;;;;;;38.70;24.80;;;;;;;2.70;84.97;99929.48;109158;1276;22442;-60
2022/02/25 02:46:33;;;;;;;35.10;24.70;;;;;;;2.69;85.01;99931.54;109060;1276;138392;-60
2022/02/25 02:49:04;;;;;;;43.00;27.40;;;;;;;2.69;84.84;99927.81;109249;1276;22450;-60
2022/02/25 02:51:32;;;;;;;44.10;28.00;;;;;;;2.67;84.99;99921.67;109182;1276;22537;-60
2022/02/25 02:54:00;;;;;;;37.30;25.30;;;;;;;2.65;84.94;99920.98;109054;1277;138156;-60
2022/02/25 02:56:28;;;;;;;36.30;24.20;;;;;;;2.63;84.90;99922.59;109155;1277;23407;-61
2022/02/25 02:58:56;;;;;;;41.40;27.80;;;;;;;2.62;84.87;99920.76;109032;1277;137707;-60
2022/02/25 03:01:30;;;;;;;37.20;23.80;;;;;;;2.62;84.87;99919.14;109240;1277;22587;-60
2022/02/25 03:03:59;;;;;;;36.40;24.20;;;;;;;2.62;84.89;99917.40;109165;1276;22642;-60
2022/02/25 03:06:27;;;;;;;34.60;22.60;;;;;;;2.62;84.92;99917.73;109082;1276;137933;-60
2022/02/25 03:08:55;;;;;;;33.10;22.30;;;;;;;2.62;84.97;99919.69;109208;1277;23138;-60
2022/02/25 03:11:23;;;;;;;36.40;23.00;;;;;;;2.63;84.88;99920.89;109062;1276;138618;-59
2022/02/25 03:13:51;;;;;;;39.40;23.20;;;;;;;2.63;85.07;99921.26;109139;1276;23365;-60
2022/02/25 03:16:20;;;;;;;38.40;22.90;;;;;;;2.63;84.95;99916.71;109035;1277;139502;-60
2022/02/25 03:18:48;;;;;;;34.50;22.20;;;;;;;2.64;85.09;99912.00;109150;1276;22471;-60
2022/02/25 03:21:16;;;;;;;33.00;21.10;;;;;;;2.64;85.19;99915.52;109239;1275;22431;-60
2022/02/25 03:23:44;;;;;;;33.40;22.70;;;;;;;2.65;85.07;99912.79;109066;1275;139174;-60
2022/02/25 03:26:13;;;;;;;33.60;22.20;;;;;;;2.65;85.06;99913.80;109134;1277;22554;-60
2022/02/25 03:28:41;;;;;;;35.10;22.30;;;;;;;2.64;85.19;99907.45;109105;1277;139330;-60
2022/02/25 03:31:09;;;;;;;32.20;22.40;;;;;;;2.65;85.12;99908.04;109085;1277;22516;-60
2022/02/25 03:33:37;;;;;;;34.90;22.20;;;;;;;2.65;85.15;99906.55;109145;1276;22550;-61
2022/02/25 03:36:05;;;;;;;35.50;23.00;;;;;;;2.64;85.23;99901.75;109114;1277;137480;-60
2022/02/25 03:38:33;;;;;;;38.50;23.90;;;;;;;2.65;85.25;99905.19;109075;1277;22466;-60
2022/02/25 03:41:01;;;;;;;34.10;22.80;;;;;;;2.66;85.07;99904.73;109071;1277;138215;-59
2022/02/25 03:43:29;;;;;;;34.90;23.80;;;;;;;2.64;85.10;99904.19;109233;1277;22469;-59
2022/02/25 03:45:57;;;;;;;33.60;23.60;;;;;;;2.63;85.03;99904.71;109084;1277;22453;-59
2022/02/25 03:48:25;;;;;;;37.80;23.30;;;;;;;2.61;85.04;99907.68;109134;1277;138971;-60
2022/02/25 03:50:53;;;;;;;31.80;22.80;;;;;;;2.57;84.93;99903.90;109225;1276;22483;-59
2022/02/25 03:53:21;;;;;;;35.90;22.60;;;;;;;2.59;85.06;99902.27;109033;1277;139017;-60
2022/02/25 03:55:49;;;;;;;34.10;23.90;;;;;;;2.59;85.06;99903.13;109176;1277;22432;-60
2022/02/25 03:58:16;;;;;;;36.30;24.30;;;;;;;2.59;85.04;99897.80;109094;1277;139271;-60
2022/02/25 04:00:44;;;;;;;33.90;22.20;;;;;;;2.58;85.13;99895.52;109152;1277;23242;-59
2022/02/25 04:03:12;;;;;;;35.30;23.70;;;;;;;2.58;85.09;99894.98;109172;1277;22540;-59
2022/02/25 04:05:41;;;;;;;36.70;22.50;;;;;;;2.59;85.22;99891.88;108957;1277;139152;-59
2022/02/25 04:08:09;;;;;;;35.80;22.70;;;;;;;2.58;85.01;99886.33;109179;1277;22494;-60
2022/02/25 04:10:37;;;;;;;36.20;23.90;;;;;;;2.58;85.05;99883.14;109074;1277;138972;-60
2022/02/25 04:13:05;;;;;;;36.10;22.90;;;;;;;2.56;85.14;99878.20;109223;1276;22984;-59
2022/02/25 04:15:37;;;;;;;37.00;22.50;;;;;;;2.59;85.04;99880.29;109150;1276;22789;-60
2022/02/25 04:18:05;;;;;;;37.50;23.00;;;;;;;2.60;85.06;99882.58;109096;1276;138872;-59
2022/02/25 04:20:33;;;;;;;35.90;23.20;;;;;;;2.59;84.93;99878.05;109170;1276;22459;-59
2022/02/25 04:23:01;;;;;;;39.00;24.30;;;;;;;2.59;85.05;99884.30;109088;1277;137760;-60
2022/02/25 04:25:30;;;;;;;36.40;23.70;;;;;;;2.59;85.10;99883.02;109199;1276;22524;-60
2022/02/25 04:27:57;;;;;;;38.30;24.70;;;;;;;2.58;84.94;99879.45;109201;1277;22464;-59
2022/02/25 04:30:26;;;;;;;38.10;24.50;;;;;;;2.56;84.69;99878.23;109148;1276;137985;-59
2022/02/25 04:32:54;;;;;;;35.80;22.70;;;;;;;2.55;84.80;99882.36;109207;1277;23296;-59
2022/02/25 04:35:22;;;;;;;39.10;24.10;;;;;;;2.53;84.71;99882.67;109061;1277;138156;-59
2022/02/25 04:37:50;;;;;;;41.60;23.50;;;;;;;2.52;84.63;99881.64;109215;1277;23145;-60
2022/02/25 04:40:20;;;;;;;39.30;23.70;;;;;;;2.50;84.55;99875.05;109091;1277;139430;-59
2022/02/25 04:42:48;;;;;;;34.60;22.40;;;;;;;2.48;84.63;99873.38;109172;1277;22501;-59
2022/02/25 04:45:16;;;;;;;35.50;22.40;;;;;;;2.48;84.57;99869.15;109108;1278;22894;-59
2022/02/25 04:47:44;;;;;;;39.10;23.40;;;;;;;2.48;84.63;99868.11;109006;1276;138164;-60
2022/02/25 04:50:12;;;;;;;31.60;21.20;;;;;;;2.47;84.55;99867.48;109073;1277;23302;-59
2022/02/25 04:52:41;;;;;;;38.80;23.50;;;;;;;2.46;84.59;99863.67;108971;1277;140304;-60
2022/02/25 04:55:10;;;;;;;34.20;23.10;;;;;;;2.45;84.56;99864.98;109089;1276;22460;-60
2022/02/25 04:57:41;;;;;;;38.30;21.60;;;;;;;2.43;84.44;99863.89;109158;1277;22454;-60
2022/02/25 05:00:10;;;;;;;33.30;21.70;;;;;;;2.41;84.57;99869.34;108939;1279;138275;-60
2022/02/25 05:02:41;;;;;;;37.30;23.30;;;;;;;2.38;84.34;99867.20;109003;1278;22418;-60
2022/02/25 05:05:09;;;;;;;37.20;23.00;;;;;;;2.36;84.39;99865.92;108919;1278;137894;-60
2022/02/25 05:07:38;;;;;;;37.70;23.40;;;;;;;2.34;84.48;99865.77;109055;1279;22474;-60
2022/02/25 05:10:06;;;;;;;37.50;22.20;;;;;;;2.34;84.32;99869.92;109044;1278;23189;-59
2022/02/25 05:12:35;;;;;;;37.40;23.70;;;;;;;2.33;84.43;99870.38;109069;1277;137689;-58
2022/02/25 05:20:36;;;;;;;38.00;23.90;;;;;;;2.32;84.32;99863.50;104836;1277;22605;-59
2022/02/25 05:23:05;;;;;;;37.00;23.30;;;;;;;2.32;84.17;99858.33;104737;1277;138600;-59
2022/02/25 05:25:34;;;;;;;35.40;22.50;;;;;;;2.32;84.32;99857.21;109113;1278;23695;-59
2022/02/25 05:28:03;;;;;;;35.10;21.90;;;;;;;2.33;84.24;99860.40;109197;1277;22450;-59
2022/02/25 05:30:30;;;;;;;34.00;21.40;;;;;;;2.33;84.20;99857.67;108963;1278;138672;-59
2022/02/25 05:32:58;;;;;;;38.50;22.50;;;;;;;2.33;84.15;99850.65;109232;1277;22421;-60
2022/02/25 05:35:26;;;;;;;33.10;23.30;;;;;;;2.32;84.16;99840.50;109056;1277;137925;-60
2022/02/25 05:37:59;;;;;;;39.90;23.80;;;;;;;2.34;84.25;99845.32;109127;1277;22612;-60
2022/02/25 05:40:27;;;;;;;47.00;24.80;;;;;;;2.32;84.02;99845.55;109115;1277;139330;-60
2022/02/25 05:42:55;;;;;;;46.60;26.30;;;;;;;2.35;83.90;99844.26;109141;1277;22543;-60
2022/02/25 05:45:23;;;;;;;40.30;25.00;;;;;;;2.36;83.86;99846.41;109189;1277;22605;-60
2022/02/25 05:47:52;;;;;;;37.00;24.00;;;;;;;2.35;83.86;99842.55;109096;1277;139746;-60
2022/02/25 05:50:20;;;;;;;38.10;24.00;;;;;;;2.34;83.87;99840.39;109175;1277;22476;-61
2022/02/25 05:52:48;;;;;;;39.70;25.50;;;;;;;2.31;83.79;99836.20;109048;1277;138094;-60
2022/02/25 05:55:18;;;;;;;36.90;24.10;;;;;;;2.33;83.87;99843.08;109155;1277;22641;-60
2022/02/25 05:57:46;;;;;;;39.90;23.60;;;;;;;2.34;83.58;99848.01;109146;1277;22495;-61
2022/02/25 06:00:15;;;;;;;39.00;23.30;;;;;;;2.36;83.76;99846.49;109096;1277;137962;-60
2022/02/25 06:02:44;;;;;;;40.00;23.10;;;;;;;2.38;83.84;99851.61;109177;1277;22663;-60
2022/02/25 06:05:13;;;;;;;41.20;24.40;;;;;;;2.40;83.72;99849.55;109040;1277;138991;-60
2022/02/25 06:07:41;;;;;;;42.10;23.90;;;;;;;2.41;83.53;99851.25;109192;1277;22392;-60
2022/02/25 06:10:09;;;;;;;37.90;23.50;;;;;;;2.42;83.56;99853.86;109216;1277;23657;-60
2022/02/25 06:12:38;;;;;;;39.80;22.10;;;;;;;2.43;83.51;99853.38;109048;1277;139002;-60
2022/02/25 06:15:08;;;;;;;38.20;23.40;;;;;;;2.44;83.33;99854.46;109194;1277;22330;-60
2022/02/25 06:17:47;;;;;;;35.10;23.00;;;;;;;2.44;83.32;99851.92;109059;1277;138175;-60
2022/02/25 06:20:16;;;;;;;38.70;22.60;;;;;;;2.50;83.31;99862.42;109178;1277;23667;-60
2022/02/25 06:22:45;;;;;;;36.20;22.60;;;;;;;2.52;83.28;99857.08;109086;1277;138913;-60
2022/02/25 06:25:14;;;;;;;42.80;27.60;;;;;;;2.57;83.22;99858.05;109223;1277;23354;-60
2022/02/25 06:27:42;;;;;;;43.60;24.50;;;;;;;2.59;82.97;99855.61;109221;1277;22487;-60
2022/02/25 06:30:12;;;;;;;33.70;21.70;;;;;;;2.62;82.87;99854.54;109064;1277;138214;-60
2022/02/25 06:32:40;;;;;;;73.30;41.10;;;;;;;2.64;82.69;99858.12;109178;1277;23204;-60
2022/02/25 06:35:08;;;;;;;49.60;30.00;;;;;;;2.68;82.71;99857.69;109098;1277;138824;-60
2022/02/25 06:37:37;;;;;;;42.90;26.20;;;;;;;2.71;82.56;99855.65;109139;1277;22485;-60
2022/02/25 06:40:07;;;;;;;35.00;23.40;;;;;;;2.74;82.50;99852.35;109178;1277;23195;-59
2022/02/25 06:42:37;;;;;;;39.80;24.30;;;;;;;2.77;82.37;99856.95;108971;1277;138469;-59
2022/02/25 06:45:15;;;;;;;42.50;24.50;;;;;;;2.79;82.29;99854.19;109185;1277;22241;-59
2022/02/25 06:47:43;;;;;;;36.10;23.70;;;;;;;2.80;82.05;99854.94;109047;1277;137422;-60
2022/02/25 06:50:11;;;;;;;43.80;25.50;;;;;;;2.81;81.87;99852.14;109156;1277;22535;-59
2022/02/25 06:52:39;;;;;;;36.90;23.30;;;;;;;2.81;81.63;99851.05;109068;1277;138887;-59
2022/02/25 06:55:13;;;;;;;37.90;23.60;;;;;;;2.80;81.48;99851.51;109206;1277;22438;-59
2022/02/25 06:58:05;;;;;;;36.90;22.60;;;;;;;2.79;81.47;99847.70;109218;1276;22477;-59
2022/02/25 07:00:34;;;;;;;36.80;22.30;;;;;;;2.80;81.46;99846.95;109110;1277;138446;-59
2022/02/25 07:03:03;;;;;;;34.20;22.10;;;;;;;2.81;81.19;99840.70;109196;1277;22493;-59
2022/02/25 07:05:33;;;;;;;42.10;22.70;;;;;;;2.83;81.12;99842.17;109061;1277;137991;-60
2022/02/25 07:08:01;;;;;;;34.20;22.00;;;;;;;2.87;81.11;99836.35;109207;1277;22387;-60
2022/02/25 07:10:31;;;;;;;37.50;21.20;;;;;;;2.90;81.02;99836.77;109036;1277;138249;-60
2022/02/25 07:12:59;;;;;;;42.00;23.60;;;;;;;2.93;80.82;99834.76;109218;1277;23168;-60
2022/02/25 07:15:27;;;;;;;32.80;19.90;;;;;;;2.96;80.67;99839.82;109201;1276;22484;-61
2022/02/25 07:17:56;;;;;;;32.20;20.30;;;;;;;2.99;80.43;99839.88;109136;1277;138060;-60
2022/02/25 07:20:24;;;;;;;34.50;20.50;;;;;;;3.04;80.47;99835.54;109140;1277;22575;-60
2022/02/25 07:22:53;;;;;;;36.10;21.30;;;;;;;3.09;80.24;99822.84;109078;1276;139367;-60
2022/02/25 07:25:21;;;;;;;35.80;22.40;;;;;;;3.12;80.29;99818.39;109215;1276;22394;-59
2022/02/25 07:27:49;;;;;;;35.90;22.70;;;;;;;3.19;80.06;99819.34;109191;1277;22471;-59
2022/02/25 07:30:20;;;;;;;38.70;23.30;;;;;;;3.24;79.93;99815.43;109057;1277;138667;-60
2022/02/25 07:32:48;;;;;;;34.20;21.50;;;;;;;3.29;79.86;99815.50;109183;1277;22744;-60
2022/02/25 07:35:16;;;;;;;34.60;21.80;;;;;;;3.34;79.58;99812.88;109058;1277;137462;-60
2022/02/25 07:37:43;;;;;;;33.10;20.90;;;;;;;3.37;79.40;99812.77;109221;1277;22431;-60
2022/02/25 07:40:13;;;;;;;34.80;21.20;;;;;;;3.41;79.39;99815.80;109083;1277;23304;-60
2022/02/25 07:42:42;;;;;;;32.60;20.70;;;;;;;3.45;79.44;99816.04;108996;1277;138307;-60
2022/02/25 07:45:11;;;;;;;30.20;19.80;;;;;;;3.48;79.02;99818.79;109210;1277;22674;-59
2022/02/25 07:47:41;;;;;;;31.90;19.50;;;;;;;3.51;78.98;99814.48;109055;1276;139013;-60
2022/02/25 07:50:09;;;;;;;30.40;20.10;;;;;;;3.56;78.89;99810.98;109168;1277;22567;-60
2022/02/25 07:52:37;;;;;;;33.10;20.30;;;;;;;3.61;78.78;99811.85;109088;1277;139183;-59
2022/02/25 07:55:06;;;;;;;26.50;17.30;;;;;;;3.66;78.62;99812.97;109169;1277;22498;-59
2022/02/25 07:57:37;;;;;;;29.20;19.80;;;;;;;3.72;78.69;99811.66;109173;1277;22533;-60
2022/02/25 08:00:24;;;;;;;31.30;20.60;;;;;;;3.77;78.45;99807.29;109122;1277;137463;-60
2022/02/25 08:02:53;;;;;;;32.70;21.10;;;;;;;3.82;78.21;99800.88;109214;1277;22501;-59
2022/02/25 08:05:22;;;;;;;33.30;19.40;;;;;;;3.87;77.92;99804.16;109097;1277;138268;-60
2022/02/25 08:07:50;;;;;;;27.70;19.10;;;;;;;3.90;77.55;99799.46;109207;1277;22588;-60
2022/02/25 08:10:19;;;;;;;33.70;22.50;;;;;;;3.94;77.40;99796.88;109224;1277;22499;-59
2022/02/25 08:12:47;;;;;;;32.00;20.60;;;;;;;3.96;77.30;99796.68;108979;1277;137382;-60
2022/02/25 08:15:15;;;;;;;28.20;19.20;;;;;;;3.99;77.07;99792.05;109178;1277;22400;-61
2022/02/25 08:17:43;;;;;;;34.90;19.30;;;;;;;3.99;76.81;99789.64;108987;1277;138316;-62
2022/02/25 08:20:12;;;;;;;29.30;18.00;;;;;;;4.01;76.66;99785.28;109138;1277;23348;-62
2022/02/25 08:22:40;;;;;;;32.50;17.70;;;;;;;4.05;76.69;99782.35;108997;1277;138833;-61
2022/02/25 08:25:08;;;;;;;28.20;18.00;;;;;;;4.09;76.53;99777.09;109070;1276;22497;-61
2022/02/25 08:27:36;;;;;;;27.70;18.40;;;;;;;4.15;76.26;99778.09;109118;1277;23224;-61
2022/02/25 08:30:07;;;;;;;32.20;18.70;;;;;;;4.21;76.29;99775.15;108905;1277;138232;-62
2022/02/25 08:32:35;;;;;;;29.30;18.60;;;;;;;4.25;76.16;99779.55;109181;1276;23127;-62
2022/02/25 08:35:04;;;;;;;30.50;18.60;;;;;;;4.29;76.04;99777.84;108987;1277;138351;-62
2022/02/25 08:37:32;;;;;;;27.90;17.90;;;;;;;4.33;75.38;99778.34;109123;1277;23228;-62
2022/02/25 08:40:20;;;;;;;26.60;17.30;;;;;;;4.37;75.42;99777.15;109122;1277;22529;-62
2022/02/25 08:42:48;;;;;;;28.10;18.10;;;;;;;4.41;75.63;99774.98;109064;1277;139055;-62
2022/02/25 08:45:16;;;;;;;28.30;18.50;;;;;;;4.45;75.27;99772.55;109142;1277;23260;-60
2022/02/25 08:47:45;;;;;;;33.80;19.00;;;;;;;4.48;75.22;99776.29;108876;1279;138501;-60
2022/02/25 08:50:14;;;;;;;30.30;18.40;;;;;;;4.51;74.87;99768.80;109125;1277;22585;-60
2022/02/25 08:52:42;;;;;;;27.00;17.40;;;;;;;4.51;74.44;99763.33;108885;1279;139275;-60
2022/02/25 08:55:11;;;;;;;33.60;18.60;;;;;;;4.53;74.23;99761.24;109156;1277;22467;-60
2022/02/25 08:57:42;;;;;;;28.60;17.20;;;;;;;4.56;73.93;99753.45;109115;1277;22441;-60
2022/02/25 09:00:17;;;;;;;25.90;17.00;;;;;;;4.60;73.87;99752.94;108927;1278;138507;-60
2022/02/25 09:02:45;;;;;;;28.60;18.00;;;;;;;4.66;73.88;99751.08;108997;1278;23004;-60
2022/02/25 09:05:14;;;;;;;25.30;16.70;;;;;;;4.71;73.54;99749.07;108936;1277;137615;-59
2022/02/25 09:07:44;;;;;;;24.70;15.10;;;;;;;4.73;73.29;99749.19;109042;1278;22504;-60
2022/02/25 09:10:13;;;;;;;26.30;15.50;;;;;;;4.76;72.74;99753.77;108948;1279;22608;-60
2022/02/25 09:12:45;;;;;;;22.80;15.70;;;;;;;4.76;72.51;99750.19;108906;1279;137510;-60
2022/02/25 09:15:16;;;;;;;23.70;16.10;;;;;;;4.78;72.20;99748.35;108975;1279;22522;-59
2022/02/25 09:17:45;;;;;;;24.70;14.70;;;;;;;4.81;71.98;99749.30;108805;1279;137584;-59
2022/02/25 09:20:13;;;;;;;25.10;14.90;;;;;;;4.81;71.39;99748.46;109185;1277;23248;-59
2022/02/25 09:22:42;;;;;;;22.30;14.70;;;;;;;4.77;71.09;99746.66;108925;1277;137714;-59
2022/02/25 09:25:10;;;;;;;23.00;13.50;;;;;;;4.75;71.10;99743.98;109228;1276;22529;-59
2022/02/25 09:27:39;;;;;;;23.80;15.10;;;;;;;4.74;70.83;99742.58;109172;1277;22488;-59
2022/02/25 09:30:09;;;;;;;27.40;15.90;;;;;;;4.71;70.43;99743.67;109072;1277;138413;-60
2022/02/25 09:32:37;;;;;;;21.10;13.00;;;;;;;4.68;70.12;99737.83;109311;1277;24058;-60
2022/02/25 09:35:06;;;;;;;20.60;13.20;;;;;;;4.64;69.10;99738.05;109171;1275;138420;-60
2022/02/25 09:37:35;;;;;;;17.40;12.40;;;;;;;4.60;68.60;99732.60;109333;1275;22453;-59
2022/02/25 09:40:05;;;;;;;18.30;11.60;;;;;;;4.58;68.52;99730.40;109264;1276;22457;-60
2022/02/25 09:42:37;;;;;;;18.50;11.80;;;;;;;4.59;68.64;99726.66;109185;1276;137755;-60
2022/02/25 09:45:06;;;;;;;18.90;11.90;;;;;;;4.60;68.59;99722.18;109296;1276;22448;-60
2022/02/25 09:47:35;;;;;;;15.80;10.90;;;;;;;4.62;67.94;99719.54;109184;1277;137748;-60
2022/02/25 09:50:04;;;;;;;15.50;11.40;;;;;;;4.63;68.14;99716.11;109342;1276;22470;-60
2022/02/25 09:52:34;;;;;;;15.60;10.80;;;;;;;4.66;67.70;99717.02;109134;1276;137785;-59
2022/02/25 09:55:39;;;;;;;13.90;9.90;;;;;;;4.69;67.59;99713.24;109200;1277;22689;-60
2022/02/25 09:58:07;;;;;;;15.20;10.30;;;;;;;4.72;67.50;99710.24;108522;1282;22586;-59
2022/02/25 10:00:36;;;;;;;18.00;11.10;;;;;;;4.76;67.47;99704.44;108423;1283;137865;-59
2022/02/25 10:03:06;;;;;;;13.90;9.40;;;;;;;4.79;67.01;99707.23;108519;1284;23769;-59
2022/02/25 10:05:36;;;;;;;17.90;10.50;;;;;;;4.78;66.47;99694.59;108402;1283;137898;-59
2022/02/25 10:08:11;;;;;;;13.90;9.30;;;;;;;4.76;66.49;99686.83;108562;1283;22567;-59
2022/02/25 10:10:41;;;;;;;18.10;10.20;;;;;;;4.80;66.03;99691.04;108330;1283;137586;-59
2022/02/25 10:13:11;;;;;;;13.40;10.20;;;;;;;4.83;65.67;99688.20;108515;1284;23251;-59
2022/02/25 10:15:40;;;;;;;19.30;10.80;;;;;;;4.86;66.01;99675.90;108316;1284;22481;-59
2022/02/25 10:18:16;;;;;;;15.60;11.10;;;;;;;4.89;66.09;99672.18;108397;1283;138421;-60
2022/02/25 10:20:45;;;;;;;17.20;10.40;;;;;;;4.93;65.42;99665.61;108491;1283;22521;-59
2022/02/25 10:23:25;;;;;;;15.60;9.70;;;;;;;4.93;65.27;99656.44;108391;1283;137611;-59
2022/02/25 10:25:54;;;;;;;16.30;11.70;;;;;;;4.93;64.91;99655.20;108531;1283;23339;-59
2022/02/25 10:28:27;;;;;;;13.50;9.70;;;;;;;4.94;64.39;99658.68;108427;1284;22516;-59
2022/02/25 10:31:21;;;;;;;17.10;11.20;;;;;;;4.95;64.24;99653.27;108421;1283;138139;-59
2022/02/25 10:34:01;;;;;;;17.60;11.10;;;;;;;4.98;64.57;99650.23;108516;1283;22466;-60
2022/02/25 10:36:44;;;;;;;15.00;9.70;;;;;;;5.02;64.90;99646.34;109007;1277;137681;-60
2022/02/25 10:39:18;;;;;;;15.40;10.20;;;;;;;5.11;65.08;99648.89;109116;1277;22407;-59
2022/02/25 10:45:12;;;;;;;15.80;10.50;;;;;;;5.30;64.53;99649.19;101786;1309;545938;-59
2022/02/25 10:47:43;;;;;;;16.00;10.00;;;;;;;5.30;64.20;99644.20;103718;1287;137063;-59
2022/02/25 10:50:12;;;;;;;17.50;10.50;;;;;;;5.34;64.33;99640.80;108067;1286;23203;-59
2022/02/25 10:52:44;;;;;;;15.60;11.00;;;;;;;5.36;63.74;99636.29;108219;1285;138000;-59
2022/02/25 10:55:13;;;;;;;16.50;10.60;;;;;;;5.33;63.92;99623.85;108008;1287;24630;-61
2022/02/25 10:57:41;;;;;;;16.40;10.70;;;;;;;5.29;63.50;99613.39;107898;1287;198547;-60
2022/02/25 11:00:11;;;;;;;15.60;10.30;;;;;;;5.27;63.65;99608.91;108118;1286;136814;-59
2022/02/25 11:02:40;;;;;;;16.00;9.90;;;;;;;5.25;63.48;99599.33;108256;1286;22439;-60
2022/02/25 11:05:18;;;;;;;14.20;9.90;;;;;;;5.25;63.58;99597.08;108103;1285;136632;-59
2022/02/25 11:07:51;;;;;;;14.30;9.20;;;;;;;5.27;63.50;99593.08;108243;1285;22625;-60
2022/02/25 11:10:21;;;;;;;14.70;10.20;;;;;;;5.27;63.69;99586.21;108247;1285;22481;-59
2022/02/25 11:12:49;;;;;;;17.70;10.20;;;;;;;5.27;63.61;99581.64;108179;1285;137235;-59
2022/02/25 11:15:25;;;;;;;16.70;10.50;;;;;;;5.34;64.00;99580.83;108217;1286;22630;-59
2022/02/25 11:17:54;;;;;;;14.20;9.60;;;;;;;5.42;63.45;99582.25;108148;1286;138550;-59
2022/02/25 11:20:23;;;;;;;14.40;9.40;;;;;;;5.47;62.83;99575.55;108283;1285;22421;-59
2022/02/25 11:23:13;;;;;;;15.80;10.20;;;;;;;5.48;62.52;99571.03;108136;1286;137390;-59
2022/02/25 11:25:42;;;;;;;14.00;10.10;;;;;;;5.50;62.96;99569.95;107320;1286;22635;-59
2022/02/25 11:28:13;;;;;;;17.10;10.80;;;;;;;5.53;63.09;99565.84;108310;1285;22516;-59
2022/02/25 11:31:06;;;;;;;13.50;9.30;;;;;;;5.58;63.21;99572.65;108090;1285;137094;-59
2022/02/25 11:33:34;;;;;;;13.70;9.70;;;;;;;5.66;62.56;99574.99;108309;1286;22440;-59
2022/02/25 11:36:05;;;;;;;15.80;10.40;;;;;;;5.71;62.11;99570.21;107868;1286;136904;-59